createdAt,value
2022-12-29T00:01:05.828Z,2.45
2022-12-29T00:03:34.209Z,2.25
2022-12-29T00:06:03.816Z,2.45
2022-12-29T00:08:43.102Z,2.20
2022-12-29T00:11:18.925Z,2.22
2022-12-29T00:14:06.912Z,2.30
2022-12-29T00:16:37.862Z,1.77
2022-12-29T00:19:27.783Z,2.50
2022-12-29T00:22:14.521Z,2.13
2022-12-29T00:25:01.317Z,2.22
2022-12-29T00:27:52.396Z,2.58
2022-12-29T00:30:43.610Z,2.20
2022-12-29T00:33:40.160Z,2.40
2022-12-29T00:36:40.318Z,2.63
2022-12-29T00:39:38.699Z,2.50
2022-12-29T00:42:30.999Z,2.28
2022-12-29T00:45:00.999Z,2.20
2022-12-29T00:47:31.043Z,1.90
2022-12-29T00:50:01.069Z,2.47
2022-12-29T00:52:31.221Z,2.10
2022-12-29T00:55:01.242Z,1.83
2022-12-29T00:57:31.255Z,2.25
2022-12-29T00:59:59.664Z,2.20
2022-12-29T01:02:28.243Z,2.13
2022-12-29T01:04:56.516Z,1.92
2022-12-29T01:07:24.972Z,2.75
2022-12-29T01:10:11.553Z,2.22
2022-12-29T01:12:41.825Z,2.72
2022-12-29T01:15:15.962Z,3.00
2022-12-29T01:17:43.798Z,2.35
2022-12-29T01:20:12.973Z,2.10
2022-12-29T01:22:40.870Z,2.40
2022-12-29T01:25:09.489Z,2.50
2022-12-29T01:27:37.088Z,2.10
2022-12-29T01:30:06.796Z,2.15
2022-12-29T01:32:37.324Z,2.05
2022-12-29T01:35:07.789Z,1.92
2022-12-29T01:37:37.731Z,2.17
2022-12-29T01:40:08.293Z,2.13
2022-12-29T01:42:38.258Z,2.15
2022-12-29T01:45:18.681Z,1.75
2022-12-29T01:48:11.098Z,1.90
2022-12-29T01:50:54.216Z,1.92
2022-12-29T01:53:36.116Z,2.40
2022-12-29T01:56:15.799Z,2.40
2022-12-29T01:58:57.233Z,1.83
2022-12-29T02:01:27.723Z,2.22
2022-12-29T02:03:55.905Z,2.10
2022-12-29T02:06:34.432Z,2.45
2022-12-29T02:09:03.401Z,1.85
2022-12-29T02:11:32.856Z,2.42
2022-12-29T02:14:03.853Z,1.98
2022-12-29T02:17:05.302Z,2.15
2022-12-29T02:20:15.169Z,2.25
2022-12-29T02:23:25.183Z,2.05
2022-12-29T02:27:14.711Z,2.17
2022-12-29T02:29:59.139Z,2.10
2022-12-29T02:32:43.869Z,2.40
2022-12-29T02:36:08.584Z,1.98
2022-12-29T02:39:16.442Z,1.83
2022-12-29T02:42:29.675Z,1.88
2022-12-29T02:45:46.585Z,2.20
2022-12-29T02:48:46.945Z,2.25
2022-12-29T02:51:40.844Z,1.77
2022-12-29T02:54:30.251Z,1.95
2022-12-29T02:57:00.241Z,1.95
2022-12-29T02:59:31.131Z,1.98
2022-12-29T03:02:53.972Z,2.30
2022-12-29T03:06:29.798Z,2.08
2022-12-29T03:09:38.497Z,1.90
2022-12-29T03:12:50.569Z,2.17
2022-12-29T03:16:01.984Z,2.08
2022-12-29T03:18:38.534Z,1.70
2022-12-29T03:21:44.340Z,1.80
2022-12-29T03:24:18.666Z,2.13
2022-12-29T03:26:56.184Z,2.05
2022-12-29T03:29:34.310Z,1.80
2022-12-29T03:32:09.964Z,1.75
2022-12-29T03:34:41.146Z,2.03
2022-12-29T03:37:27.124Z,1.77
2022-12-29T03:39:58.515Z,1.80
2022-12-29T03:42:36.790Z,2.80
2022-12-29T03:45:10.203Z,1.90
2022-12-29T03:47:40.405Z,1.80
2022-12-29T03:50:14.490Z,2.00
2022-12-29T03:52:44.473Z,1.80
2022-12-29T03:55:14.595Z,1.92
2022-12-29T03:57:44.638Z,1.70
2022-12-29T04:00:15.668Z,2.30
2022-12-29T04:02:45.992Z,2.03
2022-12-29T04:05:16.150Z,1.88
2022-12-29T04:07:46.257Z,2.10
2022-12-29T04:10:16.367Z,2.33
2022-12-29T04:12:47.697Z,2.08
2022-12-29T04:15:18.414Z,2.40
2022-12-29T04:17:48.451Z,2.30
2022-12-29T04:20:35.792Z,2.15
2022-12-29T04:23:08.415Z,1.95
2022-12-29T04:25:37.276Z,2.38
2022-12-29T04:28:06.402Z,2.15
2022-12-29T04:30:34.242Z,1.80
2022-12-29T04:33:02.805Z,1.67
2022-12-29T04:35:31.222Z,1.90
2022-12-29T04:37:59.617Z,2.53
2022-12-29T04:40:28.453Z,2.13
2022-12-29T04:42:57.023Z,1.85
2022-12-29T04:45:24.895Z,1.70
2022-12-29T04:47:53.332Z,2.03
2022-12-29T04:50:21.752Z,2.00
2022-12-29T04:52:50.197Z,1.80
2022-12-29T04:55:18.689Z,2.13
2022-12-29T04:57:47.393Z,2.20
2022-12-29T05:00:15.862Z,2.22
2022-12-29T05:02:44.001Z,1.80
2022-12-29T05:05:12.781Z,1.83
2022-12-29T05:07:41.478Z,1.85
2022-12-29T05:10:10.270Z,2.08
2022-12-29T05:12:39.541Z,2.35
2022-12-29T05:15:12.170Z,1.85
2022-12-29T05:17:42.248Z,2.40
2022-12-29T05:20:13.017Z,2.05
2022-12-29T05:22:43.113Z,2.03
2022-12-29T05:25:13.175Z,2.00
2022-12-29T05:27:43.194Z,2.03
2022-12-29T05:30:13.887Z,2.08
2022-12-29T05:32:44.585Z,2.25
2022-12-29T05:35:14.724Z,1.83
2022-12-29T05:37:44.881Z,2.13
2022-12-29T05:40:14.930Z,2.08
2022-12-29T05:42:45.050Z,2.10
2022-12-29T05:45:15.164Z,2.40
2022-12-29T05:47:45.340Z,1.92
2022-12-29T05:50:15.458Z,2.40
2022-12-29T05:52:46.161Z,2.40
2022-12-29T05:55:16.355Z,1.83
2022-12-29T05:57:46.592Z,1.83
2022-12-29T06:00:17.229Z,1.88
2022-12-29T06:02:47.502Z,1.92
2022-12-29T06:05:17.990Z,2.13
2022-12-29T06:07:48.179Z,1.92
2022-12-29T06:10:18.790Z,2.00
2022-12-29T06:12:49.082Z,2.08
2022-12-29T06:15:18.697Z,1.65
2022-12-29T06:17:48.749Z,1.95
2022-12-29T06:20:17.351Z,1.65
2022-12-29T06:22:46.437Z,1.80
2022-12-29T06:25:14.071Z,2.03
2022-12-29T06:27:43.432Z,2.00
2022-12-29T06:30:13.253Z,1.63
2022-12-29T06:32:43.495Z,2.13
2022-12-29T06:35:13.602Z,1.90
2022-12-29T06:37:44.378Z,1.77
2022-12-29T06:40:14.530Z,1.90
2022-12-29T06:42:44.727Z,2.20
2022-12-29T06:45:12.979Z,2.53
2022-12-29T06:47:41.372Z,2.00
2022-12-29T06:50:10.226Z,1.90
2022-12-29T06:52:38.309Z,1.75
2022-12-29T06:55:07.282Z,2.25
2022-12-29T06:57:35.108Z,1.60
2022-12-29T07:00:06.091Z,1.80
2022-12-29T07:02:34.991Z,1.75
2022-12-29T07:05:03.354Z,1.60
2022-12-29T07:07:31.754Z,1.77
2022-12-29T07:10:00.107Z,1.60
2022-12-29T07:12:28.540Z,1.67
2022-12-29T07:14:56.922Z,1.25
2022-12-29T07:17:25.350Z,1.33
2022-12-29T07:19:53.728Z,1.88
2022-12-29T07:22:22.286Z,1.33
2022-12-29T07:24:50.638Z,1.90
2022-12-29T07:27:19.029Z,1.73
2022-12-29T07:29:47.596Z,1.48
2022-12-29T07:32:16.171Z,1.90
2022-12-29T07:34:46.382Z,1.65
2022-12-29T07:37:17.784Z,1.63
2022-12-29T07:39:48.225Z,1.80
2022-12-29T07:42:18.488Z,1.88
2022-12-29T07:44:48.630Z,1.80
2022-12-29T07:47:18.687Z,1.25
2022-12-29T07:49:48.761Z,1.63
2022-12-29T07:52:18.746Z,1.58
2022-12-29T07:54:48.788Z,1.55
2022-12-29T07:57:18.815Z,1.40
2022-12-29T07:59:48.822Z,1.70
2022-12-29T08:02:18.974Z,1.55
2022-12-29T08:04:49.129Z,1.52
2022-12-29T08:07:19.194Z,1.60
2022-12-29T08:09:49.210Z,1.50
2022-12-29T08:12:22.218Z,1.70
2022-12-29T08:14:52.243Z,1.40
2022-12-29T08:17:22.520Z,1.98
2022-12-29T08:19:52.534Z,2.00
2022-12-29T08:22:22.643Z,1.77
2022-12-29T08:24:53.107Z,1.75
2022-12-29T08:27:23.381Z,1.65
2022-12-29T08:29:53.734Z,1.90
2022-12-29T08:32:23.762Z,1.70
2022-12-29T08:34:54.052Z,1.40
2022-12-29T08:37:30.720Z,1.52
2022-12-29T08:39:59.774Z,2.25
2022-12-29T08:42:32.055Z,1.80
2022-12-29T08:45:02.569Z,1.55
2022-12-29T08:47:32.642Z,1.80
2022-12-29T08:50:02.819Z,1.67
2022-12-29T08:52:32.516Z,1.67
2022-12-29T08:55:02.280Z,1.50
2022-12-29T08:57:32.163Z,1.92
2022-12-29T09:00:03.796Z,1.58
2022-12-29T09:02:32.655Z,1.70
2022-12-29T09:05:02.605Z,1.75
2022-12-29T09:07:32.590Z,1.55
2022-12-29T09:10:02.846Z,1.58
2022-12-29T09:12:36.331Z,1.60
2022-12-29T09:15:08.149Z,1.60
2022-12-29T09:17:46.459Z,1.60
2022-12-29T09:20:20.141Z,1.80
2022-12-29T09:22:50.438Z,1.70
2022-12-29T09:25:20.952Z,1.60
2022-12-29T09:27:54.261Z,1.75
2022-12-29T09:30:25.407Z,1.60
2022-12-29T09:32:55.663Z,1.60
2022-12-29T09:35:23.775Z,1.48
2022-12-29T09:37:55.863Z,1.40
2022-12-29T09:40:33.867Z,1.55
2022-12-29T09:46:15.423Z,1.20
2022-12-29T09:49:05.149Z,1.38
2022-12-29T09:51:43.233Z,1.50
2022-12-29T09:54:36.714Z,1.67
2022-12-29T09:57:47.181Z,1.58
2022-12-29T10:00:23.485Z,1.13
2022-12-29T10:03:16.440Z,1.48
2022-12-29T10:06:13.945Z,1.40
2022-12-29T10:09:31.466Z,1.27
2022-12-29T10:12:31.616Z,1.15
2022-12-29T10:15:46.557Z,1.30
2022-12-29T10:19:11.732Z,1.45
2022-12-29T10:22:50.114Z,1.67
2022-12-29T10:25:31.074Z,1.50
2022-12-29T10:28:56.341Z,1.73
2022-12-29T10:32:03.752Z,1.10
2022-12-29T10:34:51.035Z,1.40
2022-12-29T10:37:58.549Z,1.55
2022-12-29T10:41:01.489Z,1.45
2022-12-29T10:43:58.492Z,1.40
2022-12-29T10:46:39.060Z,1.35
2022-12-29T10:49:21.878Z,1.30
2022-12-29T10:52:01.413Z,1.55
2022-12-29T10:55:00.107Z,1.33
2022-12-29T10:57:40.842Z,1.52
2022-12-29T11:00:22.133Z,1.73
2022-12-29T11:04:01.265Z,1.52
2022-12-29T11:06:31.514Z,1.23
2022-12-29T11:09:32.466Z,1.40
2022-12-29T11:12:30.427Z,1.05
2022-12-29T11:15:09.710Z,2.42
2022-12-29T11:17:57.777Z,1.58
2022-12-29T11:20:39.531Z,1.20
2022-12-29T11:23:41.221Z,1.05
2022-12-29T11:26:34.125Z,1.48
2022-12-29T11:29:17.644Z,1.30
2022-12-29T11:31:56.538Z,1.00
2022-12-29T11:34:35.736Z,1.42
2022-12-29T11:37:35.571Z,1.25
2022-12-29T11:40:20.152Z,1.50
2022-12-29T11:43:04.805Z,1.63
2022-12-29T11:45:38.339Z,1.77
2022-12-29T11:48:20.849Z,1.27
2022-12-29T11:51:01.964Z,1.60
2022-12-29T11:53:50.498Z,1.52
2022-12-29T11:56:40.111Z,2.20
2022-12-29T11:59:28.709Z,1.70
2022-12-29T12:02:04.370Z,2.08
2022-12-29T12:04:39.653Z,1.85
2022-12-29T12:07:40.939Z,2.10
2022-12-29T12:10:43.445Z,1.77
2022-12-29T12:13:51.249Z,1.92
2022-12-29T12:16:42.655Z,1.90
2022-12-29T12:19:49.210Z,1.60
2022-12-29T12:22:38.449Z,1.67
2022-12-29T12:28:14.655Z,0.70
2022-12-29T12:30:58.048Z,0.60
2022-12-29T12:33:45.313Z,0.40
2022-12-29T12:37:08.166Z,0.80
2022-12-29T12:40:00.701Z,0.40
2022-12-29T12:43:04.674Z,0.50
2022-12-29T12:46:28.650Z,0.60
2022-12-29T12:49:39.564Z,0.50
2022-12-29T12:52:31.321Z,0.57
2022-12-29T12:55:39.117Z,0.68
2022-12-29T12:58:42.690Z,0.70
2022-12-29T13:01:30.455Z,0.50
2022-12-29T13:04:19.020Z,0.50
2022-12-29T13:07:22.193Z,0.43
2022-12-29T13:10:37.498Z,0.60
2022-12-29T13:14:08.331Z,0.60
2022-12-29T13:17:37.883Z,1.08
2022-12-29T13:20:53.466Z,0.70
2022-12-29T13:23:56.306Z,0.88
2022-12-29T13:26:42.198Z,0.77
2022-12-29T13:29:31.167Z,0.90
2022-12-29T13:32:26.214Z,0.93
2022-12-29T13:35:17.767Z,1.25
2022-12-29T13:38:10.318Z,1.13
2022-12-29T13:40:53.177Z,1.20
2022-12-29T13:43:29.668Z,1.08
2022-12-29T13:46:28.181Z,1.08
2022-12-29T13:49:20.794Z,0.80
2022-12-29T13:51:58.997Z,0.98
2022-12-29T13:55:23.848Z,1.00
2022-12-29T13:58:14.440Z,1.60
2022-12-29T14:01:01.182Z,1.10
2022-12-29T14:03:54.934Z,2.70
2022-12-29T14:06:41.382Z,1.77
2022-12-29T14:09:44.037Z,1.50
2022-12-29T14:12:43.025Z,2.55
2022-12-29T14:15:12.930Z,1.87
2022-12-29T14:17:42.797Z,1.40
2022-12-29T14:20:24.422Z,1.90
2022-12-29T14:23:35.683Z,1.20
2022-12-29T14:28:48.296Z,1.27
2022-12-29T14:31:16.014Z,1.13
2022-12-29T14:34:07.601Z,1.60
2022-12-29T14:37:05.163Z,1.20
2022-12-29T14:39:45.880Z,1.25
2022-12-29T14:42:23.854Z,1.45
2022-12-29T14:45:03.588Z,1.60
2022-12-29T14:48:01.123Z,1.55
2022-12-29T14:55:16.805Z,1.50
2022-12-29T14:58:02.097Z,1.33
2022-12-29T15:00:38.336Z,1.30
2022-12-29T15:03:24.327Z,1.00
2022-12-29T15:06:09.502Z,1.40
2022-12-29T15:09:00.111Z,1.45
2022-12-29T15:11:53.023Z,1.67
2022-12-29T15:14:38.494Z,1.30
2022-12-29T15:17:35.626Z,1.45
2022-12-29T15:20:29.860Z,1.48
2022-12-29T15:23:19.601Z,1.35
2022-12-29T15:26:03.497Z,1.90
2022-12-29T15:28:47.804Z,1.60
2022-12-29T15:31:30.633Z,1.23
2022-12-29T15:34:13.688Z,1.45
2022-12-29T15:36:44.441Z,1.50
2022-12-29T15:39:27.599Z,1.80
2022-12-29T15:42:20.740Z,1.67
2022-12-29T15:44:57.917Z,1.55
2022-12-29T15:47:35.600Z,1.88
2022-12-29T15:50:28.372Z,1.83
2022-12-29T15:53:00.139Z,1.73
2022-12-29T15:55:42.483Z,1.48
2022-12-29T15:58:30.614Z,1.52
2022-12-29T16:01:03.040Z,1.83
2022-12-29T16:03:38.522Z,2.00
2022-12-29T16:06:38.805Z,1.85
2022-12-29T16:09:37.683Z,1.48
2022-12-29T16:12:26.042Z,1.50
2022-12-29T16:15:04.212Z,1.48
2022-12-29T16:17:55.021Z,1.70
2022-12-29T16:20:41.373Z,1.50
2022-12-29T16:23:28.593Z,1.35
2022-12-29T16:25:59.992Z,1.63
2022-12-29T16:28:45.762Z,1.48
2022-12-29T16:31:24.920Z,1.30
2022-12-29T16:33:57.449Z,1.80
2022-12-29T16:36:42.162Z,1.40
2022-12-29T16:39:40.574Z,1.75
2022-12-29T16:42:51.841Z,1.20
2022-12-29T16:45:22.567Z,1.00
2022-12-29T16:48:07.726Z,1.15
2022-12-29T16:50:41.924Z,1.20
2022-12-29T16:53:49.975Z,1.42
2022-12-29T16:56:29.907Z,0.98
2022-12-29T16:59:33.402Z,1.05
2022-12-29T17:02:16.239Z,1.30
2022-12-29T17:04:49.528Z,1.00
2022-12-29T17:07:25.648Z,1.38
2022-12-29T17:09:56.073Z,1.10
2022-12-29T17:12:31.470Z,1.27
2022-12-29T17:15:35.209Z,1.10
2022-12-29T17:18:11.732Z,1.20
2022-12-29T17:20:43.574Z,0.85
2022-12-29T17:23:22.760Z,0.85
2022-12-29T17:25:56.691Z,1.08
2022-12-29T17:28:32.961Z,0.90
2022-12-29T17:31:07.787Z,1.10
2022-12-29T17:33:42.858Z,0.80
2022-12-29T17:36:12.743Z,0.82
2022-12-29T17:38:41.981Z,1.05
2022-12-29T17:41:15.488Z,1.75
2022-12-29T17:43:45.525Z,1.20
2022-12-29T17:46:15.272Z,1.25
2022-12-29T17:48:49.725Z,1.33
2022-12-29T17:51:23.294Z,1.13
2022-12-29T17:53:52.224Z,1.13
2022-12-29T17:56:19.574Z,0.93
2022-12-29T17:58:50.373Z,1.20
2022-12-29T18:01:21.898Z,1.25
2022-12-29T18:03:52.298Z,1.30
2022-12-29T18:06:21.852Z,1.27
2022-12-29T18:08:51.799Z,1.92
2022-12-29T18:11:28.193Z,1.90
2022-12-29T18:13:57.184Z,1.00
2022-12-29T18:16:28.079Z,1.13
2022-12-29T18:18:57.344Z,1.10
2022-12-29T18:21:27.537Z,1.23
2022-12-29T18:23:57.225Z,1.23
2022-12-29T18:26:35.688Z,1.35
2022-12-29T18:29:04.783Z,1.37
2022-12-29T18:31:36.703Z,1.33
2022-12-29T18:34:15.586Z,1.20
2022-12-29T18:36:45.722Z,1.52
2022-12-29T18:39:15.277Z,1.80
2022-12-29T18:41:45.121Z,1.30
2022-12-29T18:44:14.949Z,2.13
2022-12-29T18:46:44.819Z,1.70
2022-12-29T18:49:13.336Z,1.50
2022-12-29T18:51:41.767Z,1.40
2022-12-29T18:54:30.573Z,1.55
2022-12-29T18:57:00.879Z,1.42
2022-12-29T18:59:30.906Z,1.50
2022-12-29T19:02:00.937Z,1.92
2022-12-29T19:04:31.011Z,2.53
2022-12-29T19:07:01.096Z,2.33
2022-12-29T19:09:31.112Z,2.25
2022-12-29T19:12:01.118Z,2.20
2022-12-29T19:14:31.226Z,1.60
2022-12-29T19:16:59.607Z,2.17
2022-12-29T19:19:28.039Z,2.45
2022-12-29T19:21:58.165Z,1.52
2022-12-29T19:24:27.935Z,1.80
2022-12-29T19:26:56.612Z,1.65
2022-12-29T19:29:24.986Z,1.52
2022-12-29T19:31:53.426Z,1.52
2022-12-29T19:34:21.987Z,1.30
2022-12-29T19:36:50.381Z,1.45
2022-12-29T19:39:19.027Z,1.48
2022-12-29T19:41:47.171Z,1.50
2022-12-29T19:44:17.341Z,1.40
2022-12-29T19:46:47.780Z,1.40
2022-12-29T19:49:17.805Z,1.50
2022-12-29T19:51:47.853Z,1.40
2022-12-29T19:54:17.877Z,1.38
2022-12-29T19:56:48.235Z,1.27
2022-12-29T19:59:18.304Z,1.52
2022-12-29T20:01:48.987Z,1.75
2022-12-29T20:04:16.736Z,1.40
2022-12-29T20:06:45.289Z,1.20
2022-12-29T20:09:13.534Z,1.52
2022-12-29T20:11:42.002Z,2.40
2022-12-29T20:14:10.434Z,2.50
2022-12-29T20:17:02.408Z,1.23
2022-12-29T20:19:26.357Z,1.33
2022-12-29T20:21:56.687Z,1.35
2022-12-29T20:24:27.023Z,0.93
2022-12-29T20:26:57.675Z,1.45
2022-12-29T20:29:27.854Z,1.05
2022-12-29T20:31:57.959Z,0.98
2022-12-29T20:34:28.010Z,1.00
2022-12-29T20:36:58.083Z,1.20
2022-12-29T20:39:28.245Z,1.10
2022-12-29T20:41:59.912Z,1.30
2022-12-29T20:44:32.491Z,0.95
2022-12-29T20:47:03.709Z,1.20
2022-12-29T20:49:35.419Z,1.00
2022-12-29T20:52:07.196Z,1.17
2022-12-29T20:54:39.827Z,1.55
2022-12-29T20:57:10.164Z,1.05
2022-12-29T20:59:40.242Z,1.45
2022-12-29T21:02:23.925Z,1.35
2022-12-29T21:07:44.755Z,2.03
2022-12-29T21:10:15.899Z,1.67
2022-12-29T21:12:43.464Z,1.95
2022-12-29T21:15:14.412Z,1.75
2022-12-29T21:17:46.821Z,1.63
2022-12-29T21:20:30.051Z,1.70
2022-12-29T21:23:02.874Z,1.50
2022-12-29T21:25:37.423Z,1.23
2022-12-29T21:28:12.354Z,1.88
2022-12-29T21:30:42.728Z,1.92
2022-12-29T21:33:12.794Z,1.40
2022-12-29T21:35:41.389Z,1.20
2022-12-29T21:38:10.005Z,1.85
2022-12-29T21:40:40.866Z,1.65
2022-12-29T21:43:12.454Z,1.40
2022-12-29T21:45:42.512Z,1.60
2022-12-29T21:48:21.641Z,1.92
2022-12-29T21:51:16.611Z,1.30
2022-12-29T21:53:46.051Z,1.67
2022-12-29T21:56:21.363Z,1.80
2022-12-29T21:59:10.091Z,1.58
2022-12-29T22:01:58.771Z,1.77
2022-12-29T22:04:47.598Z,1.60
2022-12-29T22:07:36.305Z,1.83
2022-12-29T22:10:26.094Z,1.42
2022-12-29T22:13:00.069Z,1.58
2022-12-29T22:15:37.546Z,1.90
2022-12-29T22:18:07.739Z,1.30
2022-12-29T22:20:37.916Z,1.80
2022-12-29T22:23:07.963Z,2.15
2022-12-29T22:25:40.951Z,1.58
2022-12-29T22:28:11.731Z,1.50
2022-12-29T22:30:41.968Z,1.60
2022-12-29T22:33:12.088Z,1.70
2022-12-29T22:35:42.176Z,1.67
2022-12-29T22:38:10.654Z,2.83
2022-12-29T22:40:39.128Z,3.50
2022-12-29T22:43:12.892Z,2.22
2022-12-29T22:45:43.455Z,2.72
2022-12-29T22:48:13.551Z,2.42
2022-12-29T22:50:43.558Z,1.80
2022-12-29T22:53:13.571Z,1.75
2022-12-29T22:55:43.554Z,1.55
2022-12-29T22:58:13.593Z,2.03
2022-12-29T23:00:43.600Z,1.83
2022-12-29T23:03:13.912Z,1.65
2022-12-29T23:05:44.054Z,1.90
2022-12-29T23:08:14.048Z,1.88
2022-12-29T23:10:44.111Z,2.13
2022-12-29T23:13:14.134Z,1.90
2022-12-29T23:15:44.303Z,1.67
2022-12-29T23:18:15.297Z,2.08
2022-12-29T23:20:47.727Z,1.70
2022-12-29T23:23:41.823Z,2.08
2022-12-29T23:26:15.875Z,2.30
2022-12-29T23:28:44.399Z,1.80
2022-12-29T23:31:12.841Z,1.52
2022-12-29T23:33:40.815Z,1.80
2022-12-29T23:36:10.552Z,2.05
2022-12-29T23:38:40.975Z,1.90
2022-12-29T23:41:12.058Z,2.30
2022-12-29T23:43:42.167Z,1.98
2022-12-29T23:46:18.936Z,1.80
2022-12-29T23:48:49.513Z,1.83
2022-12-29T23:51:20.064Z,1.80
2022-12-29T23:53:50.167Z,1.40
2022-12-29T23:56:23.657Z,1.80
2022-12-29T23:58:54.945Z,1.50
